Three Mile, North Carolina
Current Conditions -  °F | °C
As of 8:55 AM on Wednesday 28 Jan 2015 (Local Time) from KTNB Reporting Station
Clear Clear  
Wind Chill: -17°   Ceiling: Unl
Heat Index: -8°   Visibility: 10mi
Dew Point: -15°   Wind: 21mph
Humidity: 60%   Direction: 280°W
Pressure: 30.15"   Gusts: 26mph
Location:  36.0227°N, 81.9499°W
Report Text: KTNB 281355Z AUTO 28018G23KT 10SM CLR M08/M14 A3015 RMK AO2 T10801145
Loading
Personal Weather Stations






























Interactive Weather Map New forecast layout! Learn more

10-Day Weather Forecast

Advertisements
Track Severe Weather on mobile